Time;durP1;ratioP1;P1;durP2;ratioP2;P2;SDS_P1;SDS_P2;PMS_P1;PMS_P2;Temp;Humidity;BMP_temperature;BMP_pressure;BME280_temperature;BME280_humidity;BME280_pressure;Samples;Min_cycle;Max_cycle;Signal;HPM_P1;HPM_P2
2023/01/20 00:01:13;;;;;;;9.35;4.50;;;0.90;99.90;;;;;;5083714;28;20150;-59
2023/01/20 00:03:40;;;;;;;7.95;4.45;;;1.00;99.90;;;;;;5083178;28;20039;-59
2023/01/20 00:06:06;;;;;;;7.82;6.10;;;1.00;99.90;;;;;;5079154;28;20036;-59
2023/01/20 00:08:32;;;;;;;7.65;6.25;;;1.00;99.90;;;;;;5082136;28;20106;-58
2023/01/20 00:11:02;;;;;;;7.38;4.93;;;0.90;99.90;;;;;;5081449;28;20361;-58
2023/01/20 00:13:27;;;;;;;7.80;6.93;;;0.90;99.90;;;;;;5076919;28;20156;-59
2023/01/20 00:15:53;;;;;;;8.30;4.85;;;1.00;99.90;;;;;;5085806;28;20072;-57
2023/01/20 00:18:18;;;;;;;7.45;4.70;;;0.90;99.90;;;;;;5080713;28;20075;-57
2023/01/20 00:20:44;;;;;;;7.20;4.90;;;0.80;99.90;;;;;;5082946;28;20067;-58
2023/01/20 00:23:09;;;;;;;7.13;4.57;;;0.80;99.90;;;;;;5079842;28;20028;-61
2023/01/20 00:25:35;;;;;;;7.30;4.20;;;0.90;99.90;;;;;;5079251;28;20066;-59
2023/01/20 00:28:01;;;;;;;6.63;4.28;;;0.70;99.90;;;;;;5081888;28;20052;-60
2023/01/20 00:30:27;;;;;;;8.20;6.85;;;0.60;99.90;;;;;;5083737;28;20106;-56
2023/01/20 00:32:52;;;;;;;7.15;4.25;;;0.60;99.90;;;;;;5083589;28;20047;-59
2023/01/20 00:35:18;;;;;;;8.80;4.25;;;0.60;99.90;;;;;;5061481;28;20040;-61
2023/01/20 00:37:43;;;;;;;9.60;7.65;;;0.50;99.90;;;;;;5081397;28;20043;-59
2023/01/20 00:40:09;;;;;;;6.53;4.28;;;0.60;99.90;;;;;;5081661;28;20060;-59
2023/01/20 00:42:37;;;;;;;8.23;4.47;;;0.60;99.90;;;;;;5074949;28;20454;-60
2023/01/20 00:45:06;;;;;;;8.77;5.07;;;0.50;99.90;;;;;;5065581;28;20471;-57
2023/01/20 00:47:32;;;;;;;10.52;7.47;;;0.60;99.90;;;;;;5068398;28;20321;-59
2023/01/20 00:49:57;;;;;;;6.93;4.60;;;0.50;99.90;;;;;;5067601;28;20033;-58
2023/01/20 00:52:23;;;;;;;8.15;4.50;;;0.60;99.90;;;;;;5066798;28;20051;-58
2023/01/20 00:54:48;;;;;;;6.80;4.50;;;0.60;99.90;;;;;;5069651;28;20051;-58
2023/01/20 00:57:14;;;;;;;7.72;4.47;;;0.60;99.90;;;;;;5068018;28;20037;-58
2023/01/20 00:59:39;;;;;;;9.02;4.97;;;0.60;99.90;;;;;;5066851;28;20092;-59
2023/01/20 01:02:05;;;;;;;13.52;6.88;;;0.60;99.90;;;;;;5068251;28;20117;-57
2023/01/20 01:04:30;;;;;;;20.23;5.68;;;0.60;99.90;;;;;;5065349;28;20476;-59
2023/01/20 01:06:56;;;;;;;18.50;11.68;;;0.80;99.90;;;;;;5067303;28;20433;-58
2023/01/20 01:09:21;;;;;;;22.55;7.78;;;0.70;99.90;;;;;;5068594;28;20047;-60
2023/01/20 01:11:48;;;;;;;16.23;7.07;;;0.70;99.90;;;;;;5069967;28;20051;-59
2023/01/20 01:14:13;;;;;;;16.88;12.63;;;0.80;99.90;;;;;;5065506;28;20032;-58
2023/01/20 01:16:44;;;;;;;13.23;7.85;;;0.80;99.90;;;;;;5066514;28;20051;-60
2023/01/20 01:19:09;;;;;;;12.07;7.40;;;0.90;99.90;;;;;;5065796;28;20108;-58
2023/01/20 01:21:35;;;;;;;15.10;8.32;;;0.90;99.90;;;;;;5068025;28;20413;-59
2023/01/20 01:24:03;;;;;;;12.13;7.88;;;0.90;99.90;;;;;;5067437;28;20520;-61
2023/01/20 01:26:29;;;;;;;16.38;13.80;;;0.90;99.90;;;;;;5065189;28;20317;-59
2023/01/20 01:28:54;;;;;;;12.93;7.85;;;0.90;99.90;;;;;;5065767;28;20032;-60
2023/01/20 01:31:26;;;;;;;14.38;8.15;;;0.90;99.90;;;;;;5066469;28;20140;-61
2023/01/20 01:33:51;;;;;;;13.98;8.40;;;1.00;99.90;;;;;;5064692;28;20391;-61
2023/01/20 01:36:17;;;;;;;12.13;7.82;;;0.90;99.90;;;;;;5067120;28;20059;-61
2023/01/20 01:38:43;;;;;;;25.17;13.52;;;1.00;99.90;;;;;;5049757;28;20082;-61
2023/01/20 01:41:14;;;;;;;15.32;13.73;;;1.00;99.90;;;;;;5033155;28;20036;-61
2023/01/20 01:44:08;;;;;;;14.43;8.70;;;1.10;99.90;;;;;;5063865;28;20131;-61
2023/01/20 01:46:34;;;;;;;13.57;8.25;;;1.10;99.90;;;;;;5075081;28;20047;-60
2023/01/20 01:49:11;;;;;;;12.43;7.70;;;1.00;99.90;;;;;;5100354;28;20039;-61
2023/01/20 01:51:44;;;;;;;16.05;8.07;;;0.90;99.90;;;;;;5087359;28;20052;-62
2023/01/20 01:54:19;;;;;;;15.35;13.75;;;1.00;99.90;;;;;;5081771;28;20047;-61
2023/01/20 01:56:46;;;;;;;15.60;8.90;;;1.00;99.90;;;;;;5088064;28;20107;-61
2023/01/20 01:59:14;;;;;;;15.02;8.50;;;1.10;99.90;;;;;;5099794;28;20054;-62
2023/01/20 02:01:43;;;;;;;16.23;13.95;;;1.10;99.90;;;;;;5064393;28;20051;-61
2023/01/20 02:04:12;;;;;;;15.18;8.30;;;1.10;99.90;;;;;;5089678;28;20036;-60
2023/01/20 02:06:43;;;;;;;15.52;8.25;;;1.00;99.90;;;;;;5094225;28;20412;-61
2023/01/20 02:09:08;;;;;;;15.18;7.97;;;1.00;99.90;;;;;;5091232;28;20097;-60
2023/01/20 02:11:38;;;;;;;14.02;8.25;;;1.10;99.90;;;;;;5088022;28;20401;-60
2023/01/20 02:14:05;;;;;;;17.95;15.30;;;0.90;99.90;;;;;;5097015;28;20402;-61
2023/01/20 02:16:42;;;;;;;17.65;9.10;;;1.10;99.90;;;;;;5089403;28;20035;-60
2023/01/20 02:19:41;;;;;;;17.83;15.85;;;1.00;99.90;;;;;;5086803;28;20437;-59
2023/01/20 02:22:30;;;;;;;17.67;9.40;;;1.10;99.90;;;;;;5085044;28;20059;-58
2023/01/20 02:25:02;;;;;;;16.67;9.35;;;1.10;99.90;;;;;;5084767;28;20040;-60
2023/01/20 02:28:05;;;;;;;16.92;9.30;;;1.00;99.90;;;;;;5089894;28;20519;-59
2023/01/20 02:30:36;;;;;;;14.80;8.73;;;1.10;99.90;;;;;;5089634;28;20047;-61
2023/01/20 02:33:36;;;;;;;20.60;17.17;;;0.90;99.90;;;;;;5091804;28;20342;-58
2023/01/20 02:36:13;;;;;;;18.42;9.85;;;1.00;99.90;;;;;;5087988;28;20448;-59
2023/01/20 02:38:51;;;;;;;18.38;9.55;;;1.00;99.90;;;;;;5091981;28;20040;-58
2023/01/20 02:41:22;;;;;;;16.52;9.27;;;0.90;99.90;;;;;;5088835;28;20032;-60
2023/01/20 02:44:03;;;;;;;19.80;16.88;;;1.00;99.90;;;;;;5085129;28;20048;-58
2023/01/20 02:46:52;;;;;;;19.17;9.88;;;1.00;99.90;;;;;;5089465;28;20086;-59
2023/01/20 02:49:35;;;;;;;16.08;8.82;;;1.10;99.90;;;;;;5087119;28;20044;-61
2023/01/20 02:52:04;;;;;;;17.90;9.45;;;1.00;99.90;;;;;;5085157;28;20087;-59
2023/01/20 02:54:33;;;;;;;18.00;9.23;;;1.10;99.90;;;;;;5094972;28;20040;-60
2023/01/20 02:57:02;;;;;;;18.90;9.75;;;1.00;99.90;;;;;;5094577;28;20127;-60
2023/01/20 02:59:32;;;;;;;18.50;10.13;;;1.00;99.90;;;;;;5084276;28;20028;-58
2023/01/20 03:02:09;;;;;;;17.92;9.73;;;1.00;99.90;;;;;;5092515;28;20033;-58
2023/01/20 03:04:43;;;;;;;17.85;10.15;;;1.00;99.90;;;;;;5085355;28;20060;-57
2023/01/20 03:07:11;;;;;;;19.63;16.13;;;1.00;99.90;;;;;;5086555;28;20421;-57
2023/01/20 03:09:43;;;;;;;18.05;9.38;;;1.00;99.90;;;;;;5096381;28;20039;-58
2023/01/20 03:12:32;;;;;;;19.10;9.52;;;1.00;99.90;;;;;;5086794;28;20089;-58
2023/01/20 03:14:57;;;;;;;20.98;17.35;;;0.90;99.90;;;;;;5089356;28;20112;-58
2023/01/20 03:17:23;;;;;;;17.52;9.65;;;1.10;99.90;;;;;;5101095;28;20143;-60
2023/01/20 03:19:49;;;;;;;19.45;9.50;;;0.90;99.90;;;;;;5095721;28;20032;-59
2023/01/20 03:22:15;;;;;;;21.00;17.42;;;0.90;99.90;;;;;;5092477;28;20071;-61
2023/01/20 03:24:42;;;;;;;18.00;9.68;;;1.00;99.90;;;;;;5092456;28;20146;-61
2023/01/20 03:27:09;;;;;;;19.65;9.50;;;1.00;99.90;;;;;;5095030;28;20046;-58
2023/01/20 03:29:35;;;;;;;18.13;9.63;;;0.90;99.90;;;;;;5090376;28;20068;-58
2023/01/20 03:32:03;;;;;;;22.35;17.95;;;1.00;99.90;;;;;;5096236;28;20437;-60
2023/01/20 03:34:32;;;;;;;17.73;9.52;;;0.90;99.90;;;;;;5090953;28;20047;-58
2023/01/20 03:36:59;;;;;;;20.85;10.80;;;1.00;99.90;;;;;;5089324;28;20463;-59
2023/01/20 03:39:25;;;;;;;24.52;18.67;;;0.90;99.90;;;;;;5096557;28;20027;-59
2023/01/20 03:42:02;;;;;;;23.45;19.30;;;1.00;99.90;;;;;;5092872;28;20043;-59
2023/01/20 03:44:56;;;;;;;20.08;10.93;;;1.00;99.90;;;;;;5086919;28;20096;-57
2023/01/20 03:47:37;;;;;;;20.58;11.15;;;1.00;99.90;;;;;;5079196;28;20050;-60
2023/01/20 03:50:16;;;;;;;23.45;12.20;;;0.90;99.90;;;;;;5093285;28;20050;-60
2023/01/20 03:52:49;;;;;;;21.67;11.40;;;0.90;99.90;;;;;;5100105;28;20047;-59
2023/01/20 03:55:22;;;;;;;22.00;11.65;;;1.00;99.90;;;;;;5091588;28;20522;-63
2023/01/20 03:58:02;;;;;;;24.20;12.85;;;1.00;99.90;;;;;;5086635;28;20124;-59
2023/01/20 04:00:31;;;;;;;23.27;19.00;;;0.90;99.90;;;;;;5089374;28;20046;-58
2023/01/20 04:02:59;;;;;;;20.17;11.32;;;1.00;99.90;;;;;;5094881;28;20101;-59
2023/01/20 04:05:25;;;;;;;19.73;10.30;;;1.00;99.90;;;;;;5093210;28;20036;-58
2023/01/20 04:07:55;;;;;;;21.88;12.00;;;0.90;99.90;;;;;;5090726;28;20445;-58
2023/01/20 04:10:22;;;;;;;20.35;11.07;;;1.00;99.90;;;;;;5094216;28;20047;-59
2023/01/20 04:12:47;;;;;;;22.92;20.42;;;1.00;99.90;;;;;;5092327;28;20063;-60
2023/01/20 04:15:13;;;;;;;22.90;12.05;;;1.10;99.90;;;;;;5082496;28;20089;-60
2023/01/20 04:17:39;;;;;;;20.67;11.57;;;1.00;99.90;;;;;;5098170;28;20087;-58
2023/01/20 04:20:10;;;;;;;22.60;11.68;;;1.10;99.90;;;;;;5091786;28;20027;-58
2023/01/20 04:22:35;;;;;;;23.27;19.55;;;1.10;99.90;;;;;;5100893;28;20087;-58
2023/01/20 04:25:12;;;;;;;25.52;11.60;;;1.10;99.90;;;;;;5094897;28;20027;-60
2023/01/20 04:27:37;;;;;;;23.05;12.50;;;1.10;99.90;;;;;;5094447;28;20115;-58
2023/01/20 04:30:03;;;;;;;27.38;14.20;;;1.10;99.90;;;;;;5091340;28;20198;-60
2023/01/20 04:32:29;;;;;;;25.27;12.98;;;1.00;99.90;;;;;;5092831;28;20780;-58
2023/01/20 04:34:54;;;;;;;24.00;12.55;;;1.00;99.90;;;;;;5096836;28;20098;-59
2023/01/20 04:37:20;;;;;;;22.55;11.43;;;1.10;99.90;;;;;;5097387;28;20040;-58
2023/01/20 04:39:45;;;;;;;22.23;12.07;;;1.00;99.90;;;;;;5098183;28;20032;-59
2023/01/20 04:42:11;;;;;;;28.38;21.55;;;1.00;99.90;;;;;;5092845;28;20040;-57
2023/01/20 04:44:37;;;;;;;24.00;13.82;;;1.10;99.90;;;;;;5085902;28;20048;-59
2023/01/20 04:47:03;;;;;;;27.20;20.90;;;1.00;99.90;;;;;;5093533;28;20071;-60
2023/01/20 04:49:28;;;;;;;20.88;11.80;;;1.00;99.90;;;;;;5093941;28;20367;-60
2023/01/20 04:51:54;;;;;;;23.30;12.48;;;1.00;99.90;;;;;;5090409;28;20149;-58
2023/01/20 04:54:20;;;;;;;23.35;11.43;;;0.90;99.90;;;;;;5097380;28;21833;-58
2023/01/20 04:56:48;;;;;;;24.90;12.65;;;0.90;99.90;;;;;;5093768;28;20114;-59
2023/01/20 04:59:14;;;;;;;25.90;12.27;;;1.00;99.90;;;;;;5096160;28;20063;-59
2023/01/20 05:01:39;;;;;;;24.70;13.98;;;0.90;99.90;;;;;;5078944;28;20436;-59
2023/01/20 05:04:05;;;;;;;26.48;12.65;;;1.00;99.90;;;;;;5092433;28;20047;-58
2023/01/20 05:06:31;;;;;;;25.25;12.63;;;1.00;99.90;;;;;;5070209;28;20047;-57
2023/01/20 05:08:56;;;;;;;27.95;13.35;;;0.90;99.90;;;;;;5085938;28;20040;-56
2023/01/20 05:11:22;;;;;;;25.52;13.15;;;1.00;99.90;;;;;;5079928;28;20035;-57
2023/01/20 05:13:47;;;;;;;25.55;14.63;;;1.00;99.90;;;;;;5088396;28;20032;-58
2023/01/20 05:16:13;;;;;;;26.88;14.10;;;1.00;99.90;;;;;;5092411;28;20135;-57
2023/01/20 05:18:39;;;;;;;31.02;24.58;;;0.90;99.90;;;;;;5080372;28;20047;-57
2023/01/20 05:21:07;;;;;;;28.50;14.15;;;1.00;99.90;;;;;;5087812;28;20145;-63
2023/01/20 05:23:33;;;;;;;27.60;13.73;;;0.90;99.90;;;;;;5070424;28;20047;-57
2023/01/20 05:25:58;;;;;;;26.92;14.13;;;1.00;99.90;;;;;;5052240;28;20123;-59
2023/01/20 05:28:24;;;;;;;32.05;25.60;;;0.90;99.90;;;;;;5090100;28;20163;-58
2023/01/20 05:30:50;;;;;;;32.90;14.55;;;1.00;99.90;;;;;;5095437;28;20035;-57
2023/01/20 05:33:16;;;;;;;31.75;14.25;;;1.10;99.90;;;;;;5056877;28;20111;-59
2023/01/20 05:35:41;;;;;;;38.13;27.30;;;0.90;99.90;;;;;;5085684;28;20055;-59
2023/01/20 05:38:07;;;;;;;29.02;14.80;;;1.00;99.90;;;;;;5075860;28;20035;-59
2023/01/20 05:40:32;;;;;;;32.47;15.48;;;0.90;99.90;;;;;;5091033;28;20043;-58
2023/01/20 05:43:02;;;;;;;27.73;14.90;;;1.00;99.90;;;;;;5094553;28;20061;-59
2023/01/20 05:45:29;;;;;;;30.55;16.40;;;0.90;99.90;;;;;;5088300;28;20090;-58
2023/01/20 05:47:56;;;;;;;32.67;16.35;;;0.90;99.90;;;;;;5083546;28;20035;-58
2023/01/20 05:50:24;;;;;;;31.52;16.23;;;0.90;99.90;;;;;;5073529;28;20051;-60
2023/01/20 05:52:50;;;;;;;32.13;15.80;;;0.80;99.90;;;;;;5089522;28;20036;-58
2023/01/20 05:55:16;;;;;;;31.50;15.60;;;0.80;99.90;;;;;;5092179;28;20050;-58
2023/01/20 05:57:41;;;;;;;29.58;14.93;;;0.90;99.90;;;;;;5095146;28;20118;-60
2023/01/20 06:00:07;;;;;;;30.80;15.52;;;0.90;99.90;;;;;;5088687;28;20036;-58
2023/01/20 06:02:33;;;;;;;31.83;15.57;;;0.80;99.90;;;;;;5091364;28;20050;-59
2023/01/20 06:05:02;;;;;;;32.47;14.73;;;0.80;99.90;;;;;;5092920;28;20036;-58
2023/01/20 06:07:28;;;;;;;27.42;14.95;;;0.90;99.90;;;;;;5074659;28;20042;-58
2023/01/20 06:09:55;;;;;;;31.05;15.75;;;1.00;99.90;;;;;;5097335;28;20119;-58
2023/01/20 06:12:21;;;;;;;27.88;14.80;;;0.90;99.90;;;;;;5091832;28;20062;-60
2023/01/20 06:14:47;;;;;;;32.97;25.92;;;1.00;99.90;;;;;;5072110;28;20040;-58
2023/01/20 06:17:12;;;;;;;33.30;14.77;;;0.90;99.90;;;;;;5089296;28;20031;-59
2023/01/20 06:19:38;;;;;;;33.25;16.48;;;1.10;99.90;;;;;;5095462;28;20360;-58
2023/01/20 06:22:03;;;;;;;35.15;17.20;;;0.90;99.90;;;;;;5096233;28;20127;-59
2023/01/20 06:24:29;;;;;;;34.78;16.38;;;0.90;99.90;;;;;;5086650;28;20044;-58
2023/01/20 06:26:54;;;;;;;32.80;16.05;;;0.90;99.90;;;;;;5091439;28;20043;-56
2023/01/20 06:29:20;;;;;;;38.00;17.08;;;0.90;99.90;;;;;;5095980;28;20058;-58
2023/01/20 06:31:46;;;;;;;33.97;17.20;;;1.00;99.90;;;;;;5093999;28;20039;-58
2023/01/20 06:34:12;;;;;;;35.40;17.67;;;0.90;99.90;;;;;;5096897;28;20451;-59
2023/01/20 06:36:38;;;;;;;37.72;18.08;;;0.90;99.90;;;;;;5069352;28;20079;-59
2023/01/20 06:39:03;;;;;;;36.47;18.38;;;0.90;99.90;;;;;;5088668;28;20068;-62
2023/01/20 06:41:29;;;;;;;43.30;18.45;;;0.90;99.90;;;;;;5090172;28;20436;-58
2023/01/20 06:43:55;;;;;;;39.60;18.77;;;0.90;99.90;;;;;;5086662;28;20131;-58
2023/01/20 06:46:21;;;;;;;45.53;30.42;;;1.00;99.90;;;;;;5087330;28;20208;-60
2023/01/20 06:48:46;;;;;;;35.90;17.38;;;1.00;99.90;;;;;;5071437;28;20024;-59
2023/01/20 06:51:15;;;;;;;35.58;17.40;;;0.90;99.90;;;;;;5092597;28;20100;-57
2023/01/20 06:53:41;;;;;;;36.55;17.40;;;0.90;99.90;;;;;;5091629;28;20610;-59
2023/01/20 06:56:08;;;;;;;40.47;18.55;;;1.00;99.90;;;;;;5073771;28;20055;-57
2023/01/20 06:58:34;;;;;;;34.75;17.27;;;0.90;99.90;;;;;;5090915;28;20040;-58
2023/01/20 07:01:09;;;;;;;38.25;18.38;;;0.80;99.90;;;;;;5071407;28;20059;-59
2023/01/20 07:03:35;;;;;;;40.00;18.10;;;0.90;99.90;;;;;;5084926;28;20045;-60
2023/01/20 07:06:28;;;;;;;37.67;17.67;;;0.90;99.90;;;;;;5072410;28;20060;-61
2023/01/20 07:08:54;;;;;;;42.35;19.85;;;1.00;99.90;;;;;;5089850;28;20056;-59
2023/01/20 07:11:20;;;;;;;38.40;17.83;;;1.00;99.90;;;;;;5071066;28;20494;-60
2023/01/20 07:13:46;;;;;;;43.78;31.33;;;0.90;99.90;;;;;;5084792;28;20036;-59
2023/01/20 07:16:12;;;;;;;44.35;18.88;;;1.00;99.90;;;;;;5090751;28;20214;-61
2023/01/20 07:18:38;;;;;;;38.75;16.48;;;1.00;99.90;;;;;;5090623;28;20083;-59
2023/01/20 07:21:04;;;;;;;39.03;18.70;;;1.00;99.90;;;;;;5088821;28;20032;-61
2023/01/20 07:23:32;;;;;;;39.25;17.98;;;1.00;99.90;;;;;;5070436;28;20051;-61
2023/01/20 07:26:03;;;;;;;40.60;17.50;;;1.00;99.90;;;;;;5074332;28;20047;-59
2023/01/20 07:28:30;;;;;;;50.03;32.95;;;1.10;99.90;;;;;;5070038;28;20060;-60
2023/01/20 07:31:05;;;;;;;45.17;20.33;;;1.10;99.90;;;;;;5092304;28;20115;-59
2023/01/20 07:33:31;;;;;;;47.42;18.48;;;1.10;99.90;;;;;;5088082;28;20058;-60
2023/01/20 07:35:57;;;;;;;39.17;18.25;;;1.00;99.90;;;;;;5089957;28;20099;-59
2023/01/20 07:38:22;;;;;;;41.13;17.13;;;1.10;99.90;;;;;;5088096;28;20120;-59
2023/01/20 07:40:48;;;;;;;39.28;17.50;;;1.10;99.90;;;;;;5095116;28;20078;-59
2023/01/20 07:43:14;;;;;;;47.03;21.90;;;1.10;99.90;;;;;;5096064;28;20384;-59
2023/01/20 07:45:39;;;;;;;43.95;19.80;;;1.10;99.90;;;;;;5090260;28;20125;-59
2023/01/20 07:48:06;;;;;;;42.55;19.73;;;1.10;99.90;;;;;;5092270;28;20048;-61
2023/01/20 07:50:33;;;;;;;48.00;33.88;;;1.20;99.90;;;;;;5089136;28;20462;-60
2023/01/20 07:52:59;;;;;;;41.30;18.73;;;1.20;99.90;;;;;;5088377;28;20064;-59
2023/01/20 07:55:24;;;;;;;48.72;31.52;;;1.10;99.90;;;;;;5087855;28;20153;-59
2023/01/20 07:57:50;;;;;;;45.53;18.58;;;1.20;99.90;;;;;;5095286;28;20039;-59
2023/01/20 08:00:18;;;;;;;37.65;18.40;;;1.20;99.90;;;;;;5099347;28;20047;-61
2023/01/20 08:02:43;;;;;;;43.25;19.05;;;1.20;99.90;;;;;;5074103;28;20350;-59
2023/01/20 08:05:09;;;;;;;39.45;18.33;;;1.20;99.90;;;;;;5088359;28;20047;-59
2023/01/20 08:07:34;;;;;;;46.08;19.23;;;1.20;99.90;;;;;;5089161;28;20048;-61
2023/01/20 08:10:00;;;;;;;47.65;31.98;;;1.10;99.90;;;;;;5085653;28;20118;-59
2023/01/20 08:12:27;;;;;;;40.13;18.38;;;1.20;99.90;;;;;;5083858;28;20076;-57
2023/01/20 08:15:00;;;;;;;40.83;18.05;;;1.30;99.90;;;;;;5089528;28;20032;-59
2023/01/20 08:17:25;;;;;;;43.00;18.33;;;1.20;99.90;;;;;;5069881;28;20032;-60
2023/01/20 08:19:51;;;;;;;47.47;20.15;;;1.30;99.90;;;;;;5084799;28;20025;-61
2023/01/20 08:22:17;;;;;;;40.10;18.27;;;1.30;99.90;;;;;;5094106;28;20048;-58
2023/01/20 08:24:42;;;;;;;38.97;17.15;;;1.30;99.90;;;;;;5093561;28;20044;-60
2023/01/20 08:27:08;;;;;;;41.80;18.27;;;1.40;99.90;;;;;;5097738;28;20102;-60
2023/01/20 08:29:33;;;;;;;48.55;32.42;;;1.30;99.90;;;;;;5093056;28;20044;-64
2023/01/20 08:31:59;;;;;;;48.05;30.73;;;1.40;99.90;;;;;;5093595;28;20051;-59
2023/01/20 08:34:26;;;;;;;42.65;18.23;;;1.50;99.90;;;;;;5092786;28;20046;-58
2023/01/20 08:36:53;;;;;;;39.75;17.88;;;1.40;99.90;;;;;;5075086;28;20040;-60
2023/01/20 08:39:19;;;;;;;40.58;17.55;;;1.40;99.90;;;;;;5090587;28;20036;-59
2023/01/20 08:41:46;;;;;;;39.33;17.65;;;1.40;99.90;;;;;;5090273;28;20101;-62
2023/01/20 08:44:14;;;;;;;44.15;18.92;;;1.50;99.90;;;;;;5085228;28;20051;-59
2023/01/20 08:46:41;;;;;;;42.50;17.33;;;1.40;99.90;;;;;;5065388;28;20051;-60
2023/01/20 08:49:08;;;;;;;42.95;18.13;;;1.40;99.90;;;;;;5089491;28;20047;-58
2023/01/20 08:51:34;;;;;;;45.55;30.15;;;1.50;99.90;;;;;;5092362;28;20047;-61
2023/01/20 08:54:00;;;;;;;35.05;16.83;;;1.50;99.90;;;;;;5068808;28;20032;-61
2023/01/20 08:56:27;;;;;;;45.17;29.20;;;1.60;99.90;;;;;;5087646;28;20131;-58
2023/01/20 08:58:54;;;;;;;41.20;16.17;;;1.60;99.90;;;;;;5042298;28;20366;-58
2023/01/20 09:01:23;;;;;;;44.88;28.33;;;1.70;99.90;;;;;;5091727;28;20461;-59
2023/01/20 09:03:49;;;;;;;36.75;15.85;;;1.60;99.90;;;;;;5090471;28;20032;-60
2023/01/20 09:06:15;;;;;;;37.92;16.85;;;1.70;99.90;;;;;;5074343;28;20036;-61
2023/01/20 09:08:41;;;;;;;40.65;27.42;;;1.70;99.90;;;;;;5089429;28;20091;-58
2023/01/20 09:11:10;;;;;;;37.55;16.42;;;1.80;99.90;;;;;;5089288;28;20068;-60
2023/01/20 09:13:36;;;;;;;37.35;15.45;;;1.80;99.90;;;;;;5088784;28;20047;-58
2023/01/20 09:16:03;;;;;;;38.53;25.80;;;1.80;99.90;;;;;;5085761;28;20035;-59
2023/01/20 09:18:33;;;;;;;34.20;16.10;;;1.90;99.90;;;;;;5086036;28;20040;-58
2023/01/20 09:21:00;;;;;;;35.53;15.80;;;1.80;99.90;;;;;;5082794;28;20067;-58
2023/01/20 09:23:27;;;;;;;37.58;16.00;;;1.90;99.90;;;;;;5076511;28;20145;-59
2023/01/20 09:25:53;;;;;;;39.65;16.50;;;1.90;99.90;;;;;;5086836;28;20048;-59
2023/01/20 09:28:18;;;;;;;40.58;27.55;;;1.80;99.90;;;;;;5094204;28;20028;-57
2023/01/20 09:30:44;;;;;;;36.95;16.00;;;2.00;99.90;;;;;;5085773;28;20054;-59
2023/01/20 09:33:11;;;;;;;41.15;28.55;;;2.00;99.90;;;;;;5080923;28;20032;-62
2023/01/20 09:35:37;;;;;;;38.72;17.30;;;1.90;99.90;;;;;;5072142;28;20036;-58
2023/01/20 09:44:07;;;;;;;41.53;27.92;;;1.70;99.90;;;;;;5083720;28;20105;-58
2023/01/20 09:47:19;;;;;;;33.15;15.88;;;2.00;99.90;;;;;;5080614;28;20112;-58
2023/01/20 09:53:14;;;;;;;36.33;15.32;;;2.00;99.90;;;;;;5080022;28;20044;-61
2023/01/20 09:55:45;;;;;;;37.42;16.95;;;1.90;99.90;;;;;;5077624;28;20040;-59
2023/01/20 09:58:43;;;;;;;30.17;13.50;;;1.90;99.90;;;;;;5081162;28;20123;-60
2023/01/20 10:01:20;;;;;;;39.35;26.75;;;2.00;99.90;;;;;;5079488;28;20403;-59
2023/01/20 10:04:19;;;;;;;31.13;16.27;;;2.00;99.90;;;;;;5078813;28;20076;-58
2023/01/20 10:06:52;;;;;;;38.15;16.20;;;2.00;99.90;;;;;;5061146;28;20542;-60
2023/01/20 10:09:56;;;;;;;47.40;26.70;;;1.90;99.90;;;;;;5098243;28;20230;-59
2023/01/20 10:12:33;;;;;;;31.77;14.85;;;2.00;99.90;;;;;;5030895;28;20074;-60
2023/01/20 10:15:06;;;;;;;33.63;15.45;;;2.00;99.90;;;;;;5102554;28;20054;-60
2023/01/20 10:18:04;;;;;;;34.60;15.80;;;2.00;99.90;;;;;;5101034;28;20046;-61
2023/01/20 10:20:33;;;;;;;38.03;25.00;;;1.90;99.90;;;;;;5080190;28;20042;-59
2023/01/20 10:23:14;;;;;;;35.40;17.08;;;2.00;99.90;;;;;;5103468;28;20039;-59
2023/01/20 10:26:10;;;;;;;37.90;25.00;;;2.00;99.90;;;;;;5105348;28;20046;-58
2023/01/20 10:28:39;;;;;;;32.28;14.75;;;2.00;99.90;;;;;;5105885;28;20428;-58
2023/01/20 10:31:05;;;;;;;36.65;15.23;;;2.00;99.90;;;;;;5101715;28;20383;-58
2023/01/20 10:33:37;;;;;;;36.72;15.15;;;2.00;99.90;;;;;;5110410;28;20100;-58
2023/01/20 10:36:07;;;;;;;36.95;25.00;;;2.00;99.90;;;;;;5100141;28;20382;-59
2023/01/20 10:38:38;;;;;;;33.65;14.57;;;2.00;99.90;;;;;;5109092;28;20397;-58
2023/01/20 10:41:30;;;;;;;37.13;24.65;;;2.00;99.90;;;;;;5109395;28;20043;-59
2023/01/20 10:44:05;;;;;;;39.20;15.30;;;2.10;99.90;;;;;;5096575;28;20056;-60
2023/01/20 10:46:38;;;;;;;39.50;26.08;;;2.10;99.90;;;;;;5078684;28;20040;-59
2023/01/20 10:49:32;;;;;;;35.42;15.48;;;2.20;99.90;;;;;;5091167;28;20032;-61
2023/01/20 10:52:17;;;;;;;36.40;15.45;;;2.10;99.90;;;;;;5091616;28;20126;-63
2023/01/20 10:55:11;;;;;;;37.20;17.13;;;2.10;99.90;;;;;;5090900;28;20468;-57
2023/01/20 10:57:37;;;;;;;34.65;15.20;;;2.10;99.90;;;;;;5090165;28;20040;-60
2023/01/20 11:00:20;;;;;;;41.78;26.48;;;2.20;99.90;;;;;;5087805;28;20058;-58
2023/01/20 11:02:48;;;;;;;34.28;15.65;;;2.10;99.90;;;;;;5091376;28;20036;-58
2023/01/20 11:05:23;;;;;;;44.45;26.67;;;2.10;99.90;;;;;;5092105;28;20085;-60
2023/01/20 11:07:51;;;;;;;36.03;16.23;;;2.20;99.90;;;;;;5088967;28;20503;-58
2023/01/20 11:10:19;;;;;;;32.03;15.07;;;2.20;99.90;;;;;;5088677;28;20074;-59
2023/01/20 11:12:48;;;;;;;33.03;15.60;;;2.30;99.90;;;;;;5090633;28;20551;-64
2023/01/20 11:15:20;;;;;;;34.05;15.02;;;2.20;99.90;;;;;;5070794;28;20514;-60
2023/01/20 11:18:21;;;;;;;41.15;26.67;;;2.30;99.90;;;;;;5088207;28;20044;-59
2023/01/20 11:20:56;;;;;;;34.92;16.25;;;2.40;99.90;;;;;;5088225;28;20040;-61
2023/01/20 11:23:33;;;;;;;36.80;16.83;;;2.30;99.90;;;;;;5090457;28;20048;-58
2023/01/20 11:26:01;;;;;;;40.42;26.92;;;2.30;99.90;;;;;;5089723;28;20063;-58
2023/01/20 11:28:35;;;;;;;39.53;26.63;;;2.40;99.90;;;;;;5088316;28;20064;-60
2023/01/20 11:31:02;;;;;;;37.13;17.08;;;2.40;99.90;;;;;;5090751;28;20415;-62
2023/01/20 11:33:28;;;;;;;36.08;16.08;;;2.40;99.90;;;;;;5091297;28;20107;-59
2023/01/20 11:36:26;;;;;;;37.20;25.23;;;2.40;99.90;;;;;;5090255;28;20032;-58
2023/01/20 11:38:53;;;;;;;30.52;14.77;;;2.30;99.90;;;;;;5090313;28;20122;-57
2023/01/20 11:41:27;;;;;;;41.33;26.77;;;2.30;99.90;;;;;;5094821;28;20459;-58
2023/01/20 11:43:56;;;;;;;38.20;26.17;;;2.40;99.90;;;;;;5092583;28;20857;-56
2023/01/20 11:46:26;;;;;;;39.22;25.58;;;2.40;99.90;;;;;;5094216;28;20141;-57
2023/01/20 11:49:12;;;;;;;36.80;15.63;;;2.40;99.90;;;;;;5104593;28;20032;-58
2023/01/20 11:51:53;;;;;;;32.15;14.57;;;2.40;99.90;;;;;;5102097;28;20043;-60
2023/01/20 11:54:27;;;;;;;35.28;14.82;;;2.30;99.90;;;;;;5091856;28;20032;-59
2023/01/20 11:56:58;;;;;;;35.83;24.30;;;2.40;99.90;;;;;;5097681;28;20117;-59
2023/01/20 11:59:28;;;;;;;32.67;16.15;;;2.40;99.90;;;;;;5096866;28;20378;-59
2023/01/20 12:02:14;;;;;;;28.48;13.45;;;2.50;99.90;;;;;;5080662;28;20063;-60
2023/01/20 12:05:05;;;;;;;33.13;14.20;;;2.40;99.90;;;;;;5106188;28;20039;-61
2023/01/20 12:07:36;;;;;;;31.33;13.75;;;2.50;99.90;;;;;;5106599;28;20507;-59
2023/01/20 12:10:11;;;;;;;35.75;14.68;;;2.50;99.90;;;;;;5096699;28;20044;-59
2023/01/20 12:12:54;;;;;;;38.20;16.33;;;2.50;99.90;;;;;;5095581;28;20040;-59
2023/01/20 12:15:31;;;;;;;35.72;14.75;;;2.50;99.90;;;;;;5094443;28;20143;-60
2023/01/20 12:18:29;;;;;;;37.58;24.73;;;2.50;99.90;;;;;;5091612;28;20062;-58
2023/01/20 12:21:00;;;;;;;31.90;14.65;;;2.40;99.90;;;;;;5095448;28;20101;-60
2023/01/20 12:23:45;;;;;;;30.75;13.88;;;2.40;99.90;;;;;;5086871;28;20075;-59
2023/01/20 12:26:16;;;;;;;31.35;13.90;;;2.50;99.90;;;;;;5086912;28;20055;-59
2023/01/20 12:28:49;;;;;;;29.73;13.55;;;2.40;99.90;;;;;;5095596;28;20356;-62
2023/01/20 12:31:19;;;;;;;35.15;21.95;;;2.50;99.90;;;;;;5091373;28;20040;-61
2023/01/20 12:33:55;;;;;;;31.88;13.23;;;2.50;99.90;;;;;;5094900;28;20036;-61
2023/01/20 12:36:40;;;;;;;27.27;13.52;;;2.50;99.90;;;;;;5095570;28;20744;-59
2023/01/20 12:39:27;;;;;;;33.80;23.33;;;2.50;99.90;;;;;;5093135;28;20036;-59
2023/01/20 12:42:50;;;;;;;30.63;14.70;;;2.50;99.90;;;;;;5092125;28;20036;-59
2023/01/20 12:45:22;;;;;;;29.83;12.70;;;2.40;99.90;;;;;;5022752;28;20454;-61
2023/01/20 12:47:58;;;;;;;36.95;13.43;;;2.40;99.90;;;;;;5009878;28;20042;-59
2023/01/20 12:50:39;;;;;;;36.92;24.30;;;2.40;99.90;;;;;;5060040;28;20052;-59
2023/01/20 12:53:23;;;;;;;29.25;14.73;;;2.40;99.90;;;;;;5093513;28;20040;-62
2023/01/20 12:56:17;;;;;;;36.20;24.03;;;2.40;99.90;;;;;;5088931;28;20097;-59
2023/01/20 12:59:12;;;;;;;33.45;15.35;;;2.50;99.90;;;;;;5093880;28;20460;-61
2023/01/20 13:01:40;;;;;;;28.40;13.38;;;2.40;99.90;;;;;;5089004;28;20420;-61
2023/01/20 13:04:43;;;;;;;31.52;14.43;;;2.50;99.90;;;;;;5088949;28;20031;-61
2023/01/20 13:07:47;;;;;;;37.45;24.52;;;2.40;99.90;;;;;;5088107;28;20024;-59
2023/01/20 13:10:28;;;;;;;36.38;14.10;;;2.40;99.90;;;;;;5085648;28;20043;-61